Terminal Aerodrome Forecast
Issued by NWS Lake Charles, LA

Home | Current Version | Previous Version | Text Only | Print | Product List | Glossary On
Versions: 1 2 3 4 5 6 7 8 9 10 11 12 13 14 15 16 17 18 19 20 21
000
FTUS44 KLCH 052200 AAA
TAFARA
TAF AMD
KARA 052200Z 0522/0618 01018G28KT P6SM SCT015 OVC100
     FM060600 01015KT P6SM SKC=

USA.gov is the U.S. government's official web portal to all federal, state and local government web resources and services.